sensor_id;sensor_type;location;lat;lon;timestamp;temperature;humidity
1379;DHT22;683;48.738;9.226;2023-04-24T00:00:34;9.50;99.90
1379;DHT22;683;48.738;9.226;2023-04-24T00:03:03;9.50;99.90
1379;DHT22;683;48.738;9.226;2023-04-24T00:05:32;9.50;99.90
1379;DHT22;683;48.738;9.226;2023-04-24T00:08:00;9.50;99.90
1379;DHT22;683;48.738;9.226;2023-04-24T00:10:27;9.50;99.90
1379;DHT22;683;48.738;9.226;2023-04-24T00:12:54;9.50;99.90
1379;DHT22;683;48.738;9.226;2023-04-24T00:15:22;9.50;99.90
1379;DHT22;683;48.738;9.226;2023-04-24T00:17:50;9.50;99.90
1379;DHT22;683;48.738;9.226;2023-04-24T00:20:19;9.50;99.90
1379;DHT22;683;48.738;9.226;2023-04-24T00:22:47;9.50;99.90
1379;DHT22;683;48.738;9.226;2023-04-24T00:25:14;9.40;99.90
1379;DHT22;683;48.738;9.226;2023-04-24T00:27:42;9.40;99.90
1379;DHT22;683;48.738;9.226;2023-04-24T00:30:10;9.40;99.90
1379;DHT22;683;48.738;9.226;2023-04-24T00:32:37;9.40;99.90
1379;DHT22;683;48.738;9.226;2023-04-24T00:35:06;9.50;99.90
1379;DHT22;683;48.738;9.226;2023-04-24T00:37:35;9.50;99.90
1379;DHT22;683;48.738;9.226;2023-04-24T00:40:03;9.50;99.90
1379;DHT22;683;48.738;9.226;2023-04-24T00:42:32;9.50;99.90
1379;DHT22;683;48.738;9.226;2023-04-24T00:45:01;9.50;99.90
1379;DHT22;683;48.738;9.226;2023-04-24T00:47:30;9.50;99.90
1379;DHT22;683;48.738;9.226;2023-04-24T00:49:57;9.60;99.90
1379;DHT22;683;48.738;9.226;2023-04-24T00:52:25;9.60;99.90
1379;DHT22;683;48.738;9.226;2023-04-24T00:54:55;9.60;99.90
1379;DHT22;683;48.738;9.226;2023-04-24T00:57:23;9.60;99.90
1379;DHT22;683;48.738;9.226;2023-04-24T00:59:52;9.70;99.90
1379;DHT22;683;48.738;9.226;2023-04-24T01:02:20;9.70;99.90
1379;DHT22;683;48.738;9.226;2023-04-24T01:04:49;9.70;99.90
1379;DHT22;683;48.738;9.226;2023-04-24T01:07:18;9.70;99.90
1379;DHT22;683;48.738;9.226;2023-04-24T01:09:48;9.80;99.90
1379;DHT22;683;48.738;9.226;2023-04-24T01:12:19;9.80;99.90
1379;DHT22;683;48.738;9.226;2023-04-24T01:14:47;9.80;99.90
1379;DHT22;683;48.738;9.226;2023-04-24T01:17:15;9.80;99.90
1379;DHT22;683;48.738;9.226;2023-04-24T01:19:43;9.90;99.90
1379;DHT22;683;48.738;9.226;2023-04-24T01:22:13;9.90;99.90
1379;DHT22;683;48.738;9.226;2023-04-24T01:24:40;9.90;99.90
1379;DHT22;683;48.738;9.226;2023-04-24T01:27:10;10.00;99.90
1379;DHT22;683;48.738;9.226;2023-04-24T01:29:37;10.00;99.90
1379;DHT22;683;48.738;9.226;2023-04-24T01:32:05;10.00;99.90
1379;DHT22;683;48.738;9.226;2023-04-24T01:34:33;10.00;99.90
1379;DHT22;683;48.738;9.226;2023-04-24T01:37:01;10.00;99.90
1379;DHT22;683;48.738;9.226;2023-04-24T01:39:30;10.00;99.90
1379;DHT22;683;48.738;9.226;2023-04-24T01:42:00;10.00;99.90
1379;DHT22;683;48.738;9.226;2023-04-24T01:44:28;9.90;99.90
1379;DHT22;683;48.738;9.226;2023-04-24T01:46:55;9.90;99.90
1379;DHT22;683;48.738;9.226;2023-04-24T01:49:23;9.80;99.90
1379;DHT22;683;48.738;9.226;2023-04-24T01:51:51;9.80;99.90
1379;DHT22;683;48.738;9.226;2023-04-24T01:54:18;9.80;99.90
1379;DHT22;683;48.738;9.226;2023-04-24T01:56:48;9.80;99.90
1379;DHT22;683;48.738;9.226;2023-04-24T01:59:17;9.80;99.90
1379;DHT22;683;48.738;9.226;2023-04-24T02:01:44;9.80;99.90
1379;DHT22;683;48.738;9.226;2023-04-24T02:04:12;9.70;99.90
1379;DHT22;683;48.738;9.226;2023-04-24T02:06:40;9.70;99.90
1379;DHT22;683;48.738;9.226;2023-04-24T02:09:08;9.70;99.90
1379;DHT22;683;48.738;9.226;2023-04-24T02:11:36;9.70;99.90
1379;DHT22;683;48.738;9.226;2023-04-24T02:14:05;9.70;99.90
1379;DHT22;683;48.738;9.226;2023-04-24T02:16:33;9.70;99.90
1379;DHT22;683;48.738;9.226;2023-04-24T02:19:02;9.70;99.90
1379;DHT22;683;48.738;9.226;2023-04-24T02:21:29;9.70;99.90
1379;DHT22;683;48.738;9.226;2023-04-24T02:23:57;9.70;99.90
1379;DHT22;683;48.738;9.226;2023-04-24T02:26:25;9.80;99.90
1379;DHT22;683;48.738;9.226;2023-04-24T02:28:52;9.70;99.90
1379;DHT22;683;48.738;9.226;2023-04-24T02:31:22;9.70;99.90
1379;DHT22;683;48.738;9.226;2023-04-24T02:33:49;9.70;99.90
1379;DHT22;683;48.738;9.226;2023-04-24T02:36:16;9.60;99.90
1379;DHT22;683;48.738;9.226;2023-04-24T02:38:44;9.50;99.90
1379;DHT22;683;48.738;9.226;2023-04-24T02:41:12;9.50;99.90
1379;DHT22;683;48.738;9.226;2023-04-24T02:43:42;9.60;99.90
1379;DHT22;683;48.738;9.226;2023-04-24T02:46:09;9.60;99.90
1379;DHT22;683;48.738;9.226;2023-04-24T02:48:38;9.60;99.90
1379;DHT22;683;48.738;9.226;2023-04-24T02:51:06;9.60;99.90
1379;DHT22;683;48.738;9.226;2023-04-24T02:53:33;9.70;99.90
1379;DHT22;683;48.738;9.226;2023-04-24T02:56:02;9.70;99.90
1379;DHT22;683;48.738;9.226;2023-04-24T02:58:29;9.70;99.90
1379;DHT22;683;48.738;9.226;2023-04-24T03:00:57;9.70;99.90
1379;DHT22;683;48.738;9.226;2023-04-24T03:03:25;9.80;99.90
1379;DHT22;683;48.738;9.226;2023-04-24T03:05:54;9.70;99.90
1379;DHT22;683;48.738;9.226;2023-04-24T03:08:21;9.80;99.90
1379;DHT22;683;48.738;9.226;2023-04-24T03:10:49;9.80;99.90
1379;DHT22;683;48.738;9.226;2023-04-24T03:13:16;9.80;99.90
1379;DHT22;683;48.738;9.226;2023-04-24T03:15:44;9.80;99.90
1379;DHT22;683;48.738;9.226;2023-04-24T03:18:12;9.80;99.90
1379;DHT22;683;48.738;9.226;2023-04-24T03:20:40;9.80;99.90
1379;DHT22;683;48.738;9.226;2023-04-24T03:23:09;9.70;99.90
1379;DHT22;683;48.738;9.226;2023-04-24T03:25:37;9.70;99.90
1379;DHT22;683;48.738;9.226;2023-04-24T03:28:05;9.60;99.90
1379;DHT22;683;48.738;9.226;2023-04-24T03:30:40;9.50;99.90
1379;DHT22;683;48.738;9.226;2023-04-24T03:33:09;9.50;99.90
1379;DHT22;683;48.738;9.226;2023-04-24T03:35:42;9.40;99.90
1379;DHT22;683;48.738;9.226;2023-04-24T03:38:13;9.30;99.90
1379;DHT22;683;48.738;9.226;2023-04-24T03:40:59;9.30;99.90
1379;DHT22;683;48.738;9.226;2023-04-24T03:43:47;9.20;99.90
1379;DHT22;683;48.738;9.226;2023-04-24T03:46:15;9.20;99.90
1379;DHT22;683;48.738;9.226;2023-04-24T03:48:49;9.20;99.90
1379;DHT22;683;48.738;9.226;2023-04-24T03:51:19;9.20;99.90
1379;DHT22;683;48.738;9.226;2023-04-24T03:53:50;9.10;99.90
1379;DHT22;683;48.738;9.226;2023-04-24T03:56:20;9.10;99.90
1379;DHT22;683;48.738;9.226;2023-04-24T03:58:48;9.00;99.90
1379;DHT22;683;48.738;9.226;2023-04-24T04:01:15;9.00;99.90
1379;DHT22;683;48.738;9.226;2023-04-24T04:03:51;8.90;99.90
1379;DHT22;683;48.738;9.226;2023-04-24T04:06:22;8.90;99.90
1379;DHT22;683;48.738;9.226;2023-04-24T04:08:53;8.80;99.90
1379;DHT22;683;48.738;9.226;2023-04-24T04:11:20;8.80;99.90
1379;DHT22;683;48.738;9.226;2023-04-24T04:13:48;8.70;99.90
1379;DHT22;683;48.738;9.226;2023-04-24T04:16:18;8.70;99.90
1379;DHT22;683;48.738;9.226;2023-04-24T04:18:49;8.80;99.90
1379;DHT22;683;48.738;9.226;2023-04-24T04:21:16;8.80;99.90
1379;DHT22;683;48.738;9.226;2023-04-24T04:23:44;8.90;99.90
1379;DHT22;683;48.738;9.226;2023-04-24T04:26:20;8.90;99.90
1379;DHT22;683;48.738;9.226;2023-04-24T04:29:06;9.00;99.90
1379;DHT22;683;48.738;9.226;2023-04-24T04:31:37;9.00;99.90
1379;DHT22;683;48.738;9.226;2023-04-24T04:34:10;9.10;99.90
1379;DHT22;683;48.738;9.226;2023-04-24T04:36:38;9.20;99.90
1379;DHT22;683;48.738;9.226;2023-04-24T04:39:23;9.20;99.90
1379;DHT22;683;48.738;9.226;2023-04-24T04:42:00;9.00;99.90
1379;DHT22;683;48.738;9.226;2023-04-24T04:44:35;8.70;99.90
1379;DHT22;683;48.738;9.226;2023-04-24T04:47:05;8.60;99.90
1379;DHT22;683;48.738;9.226;2023-04-24T04:49:37;8.40;99.90
1379;DHT22;683;48.738;9.226;2023-04-24T04:52:07;8.30;99.90
1379;DHT22;683;48.738;9.226;2023-04-24T04:54:34;8.20;99.90
1379;DHT22;683;48.738;9.226;2023-04-24T04:57:03;8.00;99.90
1379;DHT22;683;48.738;9.226;2023-04-24T04:59:31;7.90;99.90
1379;DHT22;683;48.738;9.226;2023-04-24T05:02:04;7.80;99.90
1379;DHT22;683;48.738;9.226;2023-04-24T05:04:32;7.70;99.90
1379;DHT22;683;48.738;9.226;2023-04-24T05:06:59;7.70;99.90
1379;DHT22;683;48.738;9.226;2023-04-24T05:09:30;7.60;99.90
1379;DHT22;683;48.738;9.226;2023-04-24T05:12:03;7.60;99.90
1379;DHT22;683;48.738;9.226;2023-04-24T05:14:35;7.60;99.90
1379;DHT22;683;48.738;9.226;2023-04-24T05:17:03;7.60;99.90
1379;DHT22;683;48.738;9.226;2023-04-24T05:19:31;7.60;99.90
1379;DHT22;683;48.738;9.226;2023-04-24T05:22:02;7.60;99.90
1379;DHT22;683;48.738;9.226;2023-04-24T05:24:34;7.70;99.90
1379;DHT22;683;48.738;9.226;2023-04-24T05:27:10;7.70;99.90
1379;DHT22;683;48.738;9.226;2023-04-24T05:29:40;7.70;99.90
1379;DHT22;683;48.738;9.226;2023-04-24T05:32:08;7.70;99.90
1379;DHT22;683;48.738;9.226;2023-04-24T05:34:35;7.70;99.90
1379;DHT22;683;48.738;9.226;2023-04-24T05:37:03;7.70;99.90
1379;DHT22;683;48.738;9.226;2023-04-24T05:39:34;7.70;99.90
1379;DHT22;683;48.738;9.226;2023-04-24T05:42:02;7.70;99.90
1379;DHT22;683;48.738;9.226;2023-04-24T05:44:32;7.80;99.90
1379;DHT22;683;48.738;9.226;2023-04-24T05:46:59;7.80;99.90
1379;DHT22;683;48.738;9.226;2023-04-24T05:49:28;7.80;99.90
1379;DHT22;683;48.738;9.226;2023-04-24T05:51:57;7.90;99.90
1379;DHT22;683;48.738;9.226;2023-04-24T05:54:25;7.90;99.90
1379;DHT22;683;48.738;9.226;2023-04-24T05:56:52;7.90;99.90
1379;DHT22;683;48.738;9.226;2023-04-24T05:59:32;7.90;99.90
1379;DHT22;683;48.738;9.226;2023-04-24T06:01:59;7.90;99.90
1379;DHT22;683;48.738;9.226;2023-04-24T06:04:28;8.00;99.90
1379;DHT22;683;48.738;9.226;2023-04-24T06:06:58;8.00;99.90
1379;DHT22;683;48.738;9.226;2023-04-24T06:09:26;8.00;99.90
1379;DHT22;683;48.738;9.226;2023-04-24T06:11:53;7.90;99.90
1379;DHT22;683;48.738;9.226;2023-04-24T06:14:27;7.90;99.90
1379;DHT22;683;48.738;9.226;2023-04-24T06:17:32;7.90;99.90
1379;DHT22;683;48.738;9.226;2023-04-24T06:19:59;7.80;99.90
1379;DHT22;683;48.738;9.226;2023-04-24T06:22:27;7.80;99.90
1379;DHT22;683;48.738;9.226;2023-04-24T06:24:56;7.80;99.90
1379;DHT22;683;48.738;9.226;2023-04-24T06:27:24;7.90;99.90
1379;DHT22;683;48.738;9.226;2023-04-24T06:29:52;8.00;99.90
1379;DHT22;683;48.738;9.226;2023-04-24T06:32:22;8.10;99.90
1379;DHT22;683;48.738;9.226;2023-04-24T06:34:51;8.30;99.90
1379;DHT22;683;48.738;9.226;2023-04-24T06:37:20;8.30;99.90
1379;DHT22;683;48.738;9.226;2023-04-24T06:39:47;8.40;99.90
1379;DHT22;683;48.738;9.226;2023-04-24T06:42:15;8.50;99.90
1379;DHT22;683;48.738;9.226;2023-04-24T06:44:43;8.60;99.90
1379;DHT22;683;48.738;9.226;2023-04-24T06:47:11;8.60;99.90
1379;DHT22;683;48.738;9.226;2023-04-24T06:49:40;8.70;99.90
1379;DHT22;683;48.738;9.226;2023-04-24T06:52:09;8.90;99.90
1379;DHT22;683;48.738;9.226;2023-04-24T06:54:36;9.00;99.90
1379;DHT22;683;48.738;9.226;2023-04-24T06:57:04;9.20;99.90
1379;DHT22;683;48.738;9.226;2023-04-24T06:59:32;9.30;99.90
1379;DHT22;683;48.738;9.226;2023-04-24T07:01:59;9.50;99.90
1379;DHT22;683;48.738;9.226;2023-04-24T07:04:26;9.70;99.90
1379;DHT22;683;48.738;9.226;2023-04-24T07:06:54;9.80;99.90
1379;DHT22;683;48.738;9.226;2023-04-24T07:09:26;10.00;99.90
1379;DHT22;683;48.738;9.226;2023-04-24T07:11:53;10.10;99.90
1379;DHT22;683;48.738;9.226;2023-04-24T07:14:22;10.40;99.90
1379;DHT22;683;48.738;9.226;2023-04-24T07:16:50;10.70;99.90
1379;DHT22;683;48.738;9.226;2023-04-24T07:19:17;11.00;99.90
1379;DHT22;683;48.738;9.226;2023-04-24T07:21:45;11.10;99.90
1379;DHT22;683;48.738;9.226;2023-04-24T07:24:12;11.00;99.90
1379;DHT22;683;48.738;9.226;2023-04-24T07:26:41;11.00;99.90
1379;DHT22;683;48.738;9.226;2023-04-24T07:29:09;10.90;99.90
1379;DHT22;683;48.738;9.226;2023-04-24T07:31:36;10.70;99.90
1379;DHT22;683;48.738;9.226;2023-04-24T07:34:04;10.50;99.90
1379;DHT22;683;48.738;9.226;2023-04-24T07:36:31;10.30;99.90
1379;DHT22;683;48.738;9.226;2023-04-24T07:38:59;10.20;99.90
1379;DHT22;683;48.738;9.226;2023-04-24T07:41:26;10.20;99.90
1379;DHT22;683;48.738;9.226;2023-04-24T07:43:56;10.20;99.90
1379;DHT22;683;48.738;9.226;2023-04-24T07:46:23;10.20;99.90
1379;DHT22;683;48.738;9.226;2023-04-24T07:48:51;10.30;99.90
1379;DHT22;683;48.738;9.226;2023-04-24T07:51:19;10.40;99.90
1379;DHT22;683;48.738;9.226;2023-04-24T07:53:46;10.60;99.90
1379;DHT22;683;48.738;9.226;2023-04-24T07:56:14;10.90;99.90
1379;DHT22;683;48.738;9.226;2023-04-24T07:58:41;11.30;99.90
1379;DHT22;683;48.738;9.226;2023-04-24T08:01:10;11.40;99.90
1379;DHT22;683;48.738;9.226;2023-04-24T08:03:38;11.40;99.90
1379;DHT22;683;48.738;9.226;2023-04-24T08:06:05;11.40;99.90
1379;DHT22;683;48.738;9.226;2023-04-24T08:08:33;11.30;98.50
1379;DHT22;683;48.738;9.226;2023-04-24T08:11:01;11.10;97.60
1379;DHT22;683;48.738;9.226;2023-04-24T08:13:28;11.00;97.80
1379;DHT22;683;48.738;9.226;2023-04-24T08:15:56;10.90;97.40
1379;DHT22;683;48.738;9.226;2023-04-24T08:18:25;10.80;98.40
1379;DHT22;683;48.738;9.226;2023-04-24T08:20:53;10.80;97.00
1379;DHT22;683;48.738;9.226;2023-04-24T08:23:21;10.70;96.20
1379;DHT22;683;48.738;9.226;2023-04-24T08:25:48;10.80;97.10
1379;DHT22;683;48.738;9.226;2023-04-24T08:28:16;10.90;96.60
1379;DHT22;683;48.738;9.226;2023-04-24T08:30:46;10.90;96.30
1379;DHT22;683;48.738;9.226;2023-04-24T08:33:14;10.90;97.20
1379;DHT22;683;48.738;9.226;2023-04-24T08:35:43;10.90;94.70
1379;DHT22;683;48.738;9.226;2023-04-24T08:38:10;10.80;94.90
1379;DHT22;683;48.738;9.226;2023-04-24T08:40:38;10.80;94.50
1379;DHT22;683;48.738;9.226;2023-04-24T08:43:05;10.90;95.10
1379;DHT22;683;48.738;9.226;2023-04-24T08:45:33;10.90;94.40
1379;DHT22;683;48.738;9.226;2023-04-24T08:48:02;11.00;93.50
1379;DHT22;683;48.738;9.226;2023-04-24T08:50:32;11.20;93.50
1379;DHT22;683;48.738;9.226;2023-04-24T08:53:01;11.50;94.10
1379;DHT22;683;48.738;9.226;2023-04-24T08:55:30;11.80;93.10
1379;DHT22;683;48.738;9.226;2023-04-24T08:57:59;11.70;92.20
1379;DHT22;683;48.738;9.226;2023-04-24T09:00:27;11.60;91.10
1379;DHT22;683;48.738;9.226;2023-04-24T09:02:55;11.70;91.40
1379;DHT22;683;48.738;9.226;2023-04-24T09:05:23;11.50;91.10
1379;DHT22;683;48.738;9.226;2023-04-24T09:07:54;11.60;91.30
1379;DHT22;683;48.738;9.226;2023-04-24T09:10:24;11.70;91.80
1379;DHT22;683;48.738;9.226;2023-04-24T09:12:52;12.00;91.70
1379;DHT22;683;48.738;9.226;2023-04-24T09:15:21;12.30;91.40
1379;DHT22;683;48.738;9.226;2023-04-24T09:17:48;12.40;91.00
1379;DHT22;683;48.738;9.226;2023-04-24T09:20:16;12.60;91.40
1379;DHT22;683;48.738;9.226;2023-04-24T09:22:45;12.90;89.80
1379;DHT22;683;48.738;9.226;2023-04-24T09:25:13;12.70;87.50
1379;DHT22;683;48.738;9.226;2023-04-24T09:27:45;12.40;87.50
1379;DHT22;683;48.738;9.226;2023-04-24T09:30:13;12.20;86.80
1379;DHT22;683;48.738;9.226;2023-04-24T09:32:42;11.90;88.80
1379;DHT22;683;48.738;9.226;2023-04-24T09:35:11;11.80;89.80
1379;DHT22;683;48.738;9.226;2023-04-24T09:37:40;11.80;89.50
1379;DHT22;683;48.738;9.226;2023-04-24T09:40:12;11.70;89.00
1379;DHT22;683;48.738;9.226;2023-04-24T09:42:45;11.70;86.20
1379;DHT22;683;48.738;9.226;2023-04-24T09:45:13;11.90;88.00
1379;DHT22;683;48.738;9.226;2023-04-24T09:47:41;12.10;84.10
1379;DHT22;683;48.738;9.226;2023-04-24T09:50:13;12.30;81.40
1379;DHT22;683;48.738;9.226;2023-04-24T09:52:42;12.30;79.10
1379;DHT22;683;48.738;9.226;2023-04-24T09:55:19;12.40;77.90
1379;DHT22;683;48.738;9.226;2023-04-24T09:57:57;12.60;78.50
1379;DHT22;683;48.738;9.226;2023-04-24T10:00:27;12.50;77.90
1379;DHT22;683;48.738;9.226;2023-04-24T10:02:55;12.30;76.40
1379;DHT22;683;48.738;9.226;2023-04-24T10:05:24;12.20;77.90
1379;DHT22;683;48.738;9.226;2023-04-24T10:07:54;11.90;78.60
1379;DHT22;683;48.738;9.226;2023-04-24T10:10:23;11.80;79.70
1379;DHT22;683;48.738;9.226;2023-04-24T10:12:51;11.80;79.50
1379;DHT22;683;48.738;9.226;2023-04-24T10:15:21;11.70;78.70
1379;DHT22;683;48.738;9.226;2023-04-24T10:17:49;11.70;80.10
1379;DHT22;683;48.738;9.226;2023-04-24T10:20:20;11.70;79.00
1379;DHT22;683;48.738;9.226;2023-04-24T10:22:49;11.70;80.00
1379;DHT22;683;48.738;9.226;2023-04-24T10:25:21;11.70;79.00
1379;DHT22;683;48.738;9.226;2023-04-24T10:27:51;11.80;77.70
1379;DHT22;683;48.738;9.226;2023-04-24T10:30:20;11.80;77.50
1379;DHT22;683;48.738;9.226;2023-04-24T10:32:48;11.90;77.30
1379;DHT22;683;48.738;9.226;2023-04-24T10:35:16;12.00;76.10
1379;DHT22;683;48.738;9.226;2023-04-24T10:37:48;12.30;76.80
1379;DHT22;683;48.738;9.226;2023-04-24T10:40:18;12.50;75.00
1379;DHT22;683;48.738;9.226;2023-04-24T10:42:48;12.80;76.60
1379;DHT22;683;48.738;9.226;2023-04-24T10:45:19;13.00;75.50
1379;DHT22;683;48.738;9.226;2023-04-24T10:47:59;13.00;72.10
1379;DHT22;683;48.738;9.226;2023-04-24T10:50:28;12.90;72.80
1379;DHT22;683;48.738;9.226;2023-04-24T10:53:06;12.90;73.80
1379;DHT22;683;48.738;9.226;2023-04-24T10:55:42;12.90;74.80
1379;DHT22;683;48.738;9.226;2023-04-24T10:58:10;12.60;75.60
1379;DHT22;683;48.738;9.226;2023-04-24T11:00:39;12.50;77.70
1379;DHT22;683;48.738;9.226;2023-04-24T11:03:22;12.50;77.70
1379;DHT22;683;48.738;9.226;2023-04-24T11:05:51;12.40;77.30
1379;DHT22;683;48.738;9.226;2023-04-24T11:08:24;12.30;77.00
1379;DHT22;683;48.738;9.226;2023-04-24T11:11:04;12.30;77.70
1379;DHT22;683;48.738;9.226;2023-04-24T11:14:01;12.20;76.50
1379;DHT22;683;48.738;9.226;2023-04-24T11:16:30;11.90;76.70
1379;DHT22;683;48.738;9.226;2023-04-24T11:19:05;11.70;77.00
1379;DHT22;683;48.738;9.226;2023-04-24T11:21:40;11.50;78.00
1379;DHT22;683;48.738;9.226;2023-04-24T11:24:28;11.40;79.40
1379;DHT22;683;48.738;9.226;2023-04-24T11:26:58;11.30;80.80
1379;DHT22;683;48.738;9.226;2023-04-24T11:29:41;11.20;81.40
1379;DHT22;683;48.738;9.226;2023-04-24T11:32:17;11.30;81.20
1379;DHT22;683;48.738;9.226;2023-04-24T11:34:47;11.40;81.80
1379;DHT22;683;48.738;9.226;2023-04-24T11:37:15;11.60;81.50
1379;DHT22;683;48.738;9.226;2023-04-24T11:39:43;12.00;80.10
1379;DHT22;683;48.738;9.226;2023-04-24T11:42:12;12.30;77.40
1379;DHT22;683;48.738;9.226;2023-04-24T11:44:41;12.40;76.20
1379;DHT22;683;48.738;9.226;2023-04-24T11:47:09;12.50;77.20
1379;DHT22;683;48.738;9.226;2023-04-24T11:49:37;12.50;77.20
1379;DHT22;683;48.738;9.226;2023-04-24T11:52:06;12.50;77.80
1379;DHT22;683;48.738;9.226;2023-04-24T11:54:34;12.40;78.90
1379;DHT22;683;48.738;9.226;2023-04-24T11:57:04;12.10;79.30
1379;DHT22;683;48.738;9.226;2023-04-24T11:59:36;11.70;78.30
1379;DHT22;683;48.738;9.226;2023-04-24T12:02:04;11.50;79.00
1379;DHT22;683;48.738;9.226;2023-04-24T12:04:39;11.60;80.20
1379;DHT22;683;48.738;9.226;2023-04-24T12:07:08;11.90;79.10
1379;DHT22;683;48.738;9.226;2023-04-24T12:09:43;12.30;76.30
1379;DHT22;683;48.738;9.226;2023-04-24T12:12:11;12.50;75.30
1379;DHT22;683;48.738;9.226;2023-04-24T12:14:49;12.70;75.70
1379;DHT22;683;48.738;9.226;2023-04-24T12:17:17;12.90;77.70
1379;DHT22;683;48.738;9.226;2023-04-24T12:19:46;13.10;78.00
1379;DHT22;683;48.738;9.226;2023-04-24T12:22:15;13.00;77.00
1379;DHT22;683;48.738;9.226;2023-04-24T12:24:59;12.80;76.70
1379;DHT22;683;48.738;9.226;2023-04-24T12:27:30;12.60;78.20
1379;DHT22;683;48.738;9.226;2023-04-24T12:30:00;12.10;80.90
1379;DHT22;683;48.738;9.226;2023-04-24T12:32:28;11.70;81.40
1379;DHT22;683;48.738;9.226;2023-04-24T12:34:56;11.60;80.90
1379;DHT22;683;48.738;9.226;2023-04-24T12:37:26;11.60;80.50
1379;DHT22;683;48.738;9.226;2023-04-24T12:40:00;11.70;79.70
1379;DHT22;683;48.738;9.226;2023-04-24T12:42:30;11.80;79.90
1379;DHT22;683;48.738;9.226;2023-04-24T12:44:58;12.00;79.00
1379;DHT22;683;48.738;9.226;2023-04-24T12:47:27;12.30;79.30
1379;DHT22;683;48.738;9.226;2023-04-24T12:49:54;12.50;78.50
1379;DHT22;683;48.738;9.226;2023-04-24T12:52:22;12.60;77.70
1379;DHT22;683;48.738;9.226;2023-04-24T12:54:55;12.50;78.10
1379;DHT22;683;48.738;9.226;2023-04-24T12:57:23;12.40;78.30
1379;DHT22;683;48.738;9.226;2023-04-24T12:59:51;12.20;79.40
1379;DHT22;683;48.738;9.226;2023-04-24T13:02:19;11.90;80.30
1379;DHT22;683;48.738;9.226;2023-04-24T13:04:48;11.60;80.80
1379;DHT22;683;48.738;9.226;2023-04-24T13:07:16;11.40;82.40
1379;DHT22;683;48.738;9.226;2023-04-24T13:09:44;11.30;82.40
1379;DHT22;683;48.738;9.226;2023-04-24T13:12:13;11.10;84.60
1379;DHT22;683;48.738;9.226;2023-04-24T13:14:41;11.00;84.60
1379;DHT22;683;48.738;9.226;2023-04-24T13:17:09;11.00;86.00
1379;DHT22;683;48.738;9.226;2023-04-24T13:19:38;11.10;88.10
1379;DHT22;683;48.738;9.226;2023-04-24T13:22:08;11.10;91.50
1379;DHT22;683;48.738;9.226;2023-04-24T13:24:38;11.00;92.00
1379;DHT22;683;48.738;9.226;2023-04-24T13:27:07;11.00;92.90
1379;DHT22;683;48.738;9.226;2023-04-24T13:29:36;11.30;93.00
1379;DHT22;683;48.738;9.226;2023-04-24T13:32:04;11.60;91.40
1379;DHT22;683;48.738;9.226;2023-04-24T13:34:32;12.00;91.50
1379;DHT22;683;48.738;9.226;2023-04-24T13:37:00;13.00;90.30
1379;DHT22;683;48.738;9.226;2023-04-24T13:39:29;13.70;87.90
1379;DHT22;683;48.738;9.226;2023-04-24T13:41:57;13.70;82.70
1379;DHT22;683;48.738;9.226;2023-04-24T13:44:25;13.30;82.60
1379;DHT22;683;48.738;9.226;2023-04-24T13:46:55;12.90;84.20
1379;DHT22;683;48.738;9.226;2023-04-24T13:49:24;12.60;85.30
1379;DHT22;683;48.738;9.226;2023-04-24T13:51:52;12.30;85.70
1379;DHT22;683;48.738;9.226;2023-04-24T13:54:20;12.00;88.00
1379;DHT22;683;48.738;9.226;2023-04-24T13:56:49;11.70;88.40
1379;DHT22;683;48.738;9.226;2023-04-24T13:59:16;11.30;88.60
1379;DHT22;683;48.738;9.226;2023-04-24T14:01:44;10.80;90.90
1379;DHT22;683;48.738;9.226;2023-04-24T14:04:13;10.40;94.60
1379;DHT22;683;48.738;9.226;2023-04-24T14:06:40;10.00;97.30
1379;DHT22;683;48.738;9.226;2023-04-24T14:09:08;9.80;99.90
1379;DHT22;683;48.738;9.226;2023-04-24T14:11:35;10.10;99.90
1379;DHT22;683;48.738;9.226;2023-04-24T14:14:03;11.30;99.90
1379;DHT22;683;48.738;9.226;2023-04-24T14:16:31;12.10;94.30
1379;DHT22;683;48.738;9.226;2023-04-24T14:18:58;12.80;92.50
1379;DHT22;683;48.738;9.226;2023-04-24T14:21:27;12.90;91.60
1379;DHT22;683;48.738;9.226;2023-04-24T14:23:56;12.90;90.40
1379;DHT22;683;48.738;9.226;2023-04-24T14:26:27;12.40;90.00
1379;DHT22;683;48.738;9.226;2023-04-24T14:29:04;12.10;90.90
1379;DHT22;683;48.738;9.226;2023-04-24T14:31:32;11.70;90.40
1379;DHT22;683;48.738;9.226;2023-04-24T14:33:59;11.30;91.80
1379;DHT22;683;48.738;9.226;2023-04-24T14:36:28;10.80;96.30
1379;DHT22;683;48.738;9.226;2023-04-24T14:38:56;10.20;98.60
1379;DHT22;683;48.738;9.226;2023-04-24T14:41:23;9.80;99.90
1379;DHT22;683;48.738;9.226;2023-04-24T14:43:51;10.40;99.90
1379;DHT22;683;48.738;9.226;2023-04-24T14:46:19;12.30;99.90
1379;DHT22;683;48.738;9.226;2023-04-24T14:48:47;14.60;99.70
1379;DHT22;683;48.738;9.226;2023-04-24T14:51:14;16.80;95.60
1379;DHT22;683;48.738;9.226;2023-04-24T14:53:43;18.70;85.80
1379;DHT22;683;48.738;9.226;2023-04-24T14:56:12;19.90;76.60
1379;DHT22;683;48.738;9.226;2023-04-24T14:58:40;20.10;68.20
1379;DHT22;683;48.738;9.226;2023-04-24T15:01:07;19.40;71.20
1379;DHT22;683;48.738;9.226;2023-04-24T15:03:35;19.00;68.60
1379;DHT22;683;48.738;9.226;2023-04-24T15:06:03;19.10;68.90
1379;DHT22;683;48.738;9.226;2023-04-24T15:08:30;20.00;66.50
1379;DHT22;683;48.738;9.226;2023-04-24T15:11:00;20.20;61.50
1379;DHT22;683;48.738;9.226;2023-04-24T15:13:28;20.30;60.20
1379;DHT22;683;48.738;9.226;2023-04-24T15:15:55;19.80;59.90
1379;DHT22;683;48.738;9.226;2023-04-24T15:18:23;18.40;62.30
1379;DHT22;683;48.738;9.226;2023-04-24T15:20:50;17.20;65.70
1379;DHT22;683;48.738;9.226;2023-04-24T15:23:18;16.30;68.30
1379;DHT22;683;48.738;9.226;2023-04-24T15:25:45;15.70;70.50
1379;DHT22;683;48.738;9.226;2023-04-24T15:28:14;15.00;71.10
1379;DHT22;683;48.738;9.226;2023-04-24T15:30:43;14.40;71.90
1379;DHT22;683;48.738;9.226;2023-04-24T15:33:11;13.90;72.50
1379;DHT22;683;48.738;9.226;2023-04-24T15:35:38;13.40;74.50
1379;DHT22;683;48.738;9.226;2023-04-24T15:38:06;13.10;74.40
1379;DHT22;683;48.738;9.226;2023-04-24T15:40:33;12.90;76.00
1379;DHT22;683;48.738;9.226;2023-04-24T15:43:01;12.60;76.60
1379;DHT22;683;48.738;9.226;2023-04-24T15:45:30;12.40;76.40
1379;DHT22;683;48.738;9.226;2023-04-24T15:47:58;12.20;79.70
1379;DHT22;683;48.738;9.226;2023-04-24T15:50:26;12.00;83.70
1379;DHT22;683;48.738;9.226;2023-04-24T15:53:11;12.10;90.40
1379;DHT22;683;48.738;9.226;2023-04-24T15:55:39;12.70;90.80
1379;DHT22;683;48.738;9.226;2023-04-24T15:58:06;12.90;91.30
1379;DHT22;683;48.738;9.226;2023-04-24T16:00:35;13.40;89.20
1379;DHT22;683;48.738;9.226;2023-04-24T16:03:03;13.40;86.80
1379;DHT22;683;48.738;9.226;2023-04-24T16:05:30;13.30;86.70
1379;DHT22;683;48.738;9.226;2023-04-24T16:07:57;13.10;85.90
1379;DHT22;683;48.738;9.226;2023-04-24T16:10:25;13.50;87.80
1379;DHT22;683;48.738;9.226;2023-04-24T16:12:53;15.30;83.20
1379;DHT22;683;48.738;9.226;2023-04-24T16:15:21;17.20;77.60
1379;DHT22;683;48.738;9.226;2023-04-24T16:17:49;19.00;75.10
1379;DHT22;683;48.738;9.226;2023-04-24T16:20:17;19.40;65.30
1379;DHT22;683;48.738;9.226;2023-04-24T16:22:44;18.70;66.30
1379;DHT22;683;48.738;9.226;2023-04-24T16:25:12;18.60;68.10
1379;DHT22;683;48.738;9.226;2023-04-24T16:27:40;18.50;67.00
1379;DHT22;683;48.738;9.226;2023-04-24T16:30:08;17.80;67.30
1379;DHT22;683;48.738;9.226;2023-04-24T16:32:36;17.10;68.30
1379;DHT22;683;48.738;9.226;2023-04-24T16:35:05;16.30;70.00
1379;DHT22;683;48.738;9.226;2023-04-24T16:37:34;15.60;71.60